Time;durP1;ratioP1;P1;durP2;ratioP2;P2;SDS_P1;SDS_P2;PMS_P1;PMS_P2;Temp;Humidity;BMP_temperature;BMP_pressure;BME280_temperature;BME280_humidity;BME280_pressure;Samples;Min_cycle;Max_cycle;Signal;HPM_P1;HPM_P2
2022/04/18 00:00:19;;;;;;;5.23;4.73;;;;;;;2.03;100.00;96640.00;5030298;28;105003;-65
2022/04/18 00:02:46;;;;;;;5.27;4.77;;;;;;;1.96;100.00;96636.53;5034724;27;102680;-65
2022/04/18 00:05:15;;;;;;;5.57;5.07;;;;;;;2.10;100.00;96637.44;5031675;27;102269;-65
2022/04/18 00:07:42;;;;;;;6.30;4.90;;;;;;;1.78;100.00;96633.56;5029628;28;105710;-65
2022/04/18 00:10:10;;;;;;;6.47;5.47;;;;;;;2.01;100.00;96635.94;5030318;28;102305;-65
2022/04/18 00:12:37;;;;;;;5.20;4.70;;;;;;;2.09;100.00;96628.72;5030414;28;105194;-65
2022/04/18 00:15:04;;;;;;;4.90;4.50;;;;;;;1.91;100.00;96628.41;5029220;28;105210;-65
2022/04/18 00:17:31;;;;;;;4.47;4.07;;;;;;;1.69;100.00;96632.09;5030108;28;101808;-65
2022/04/18 00:19:58;;;;;;;4.73;4.33;;;;;;;1.78;100.00;96633.56;5030279;28;105314;-65
2022/04/18 00:22:27;;;;;;;6.20;4.60;;;;;;;1.88;100.00;96628.00;5031016;28;102729;-65
2022/04/18 00:24:54;;;;;;;5.70;4.93;;;;;;;1.86;100.00;96625.56;5033428;28;102628;-65
2022/04/18 00:27:21;;;;;;;5.43;4.73;;;;;;;1.89;100.00;96619.94;5029592;28;105466;-65
2022/04/18 00:29:49;;;;;;;5.47;4.87;;;;;;;1.92;100.00;96616.91;5030052;28;101977;-65
2022/04/18 00:32:16;;;;;;;5.00;4.50;;;;;;;1.96;100.00;96620.78;5063967;27;105234;-65
2022/04/18 00:34:43;;;;;;;5.27;4.70;;;;;;;1.99;100.00;96614.34;5029024;28;105219;-65
2022/04/18 00:37:10;;;;;;;5.97;5.00;;;;;;;1.96;100.00;96615.53;5029515;28;102345;-65
2022/04/18 00:39:39;;;;;;;5.30;4.80;;;;;;;2.04;100.00;96618.03;5029825;28;104989;-65
2022/04/18 00:42:07;;;;;;;5.17;4.50;;;;;;;1.94;100.00;96612.31;5029103;28;105433;-65
2022/04/18 00:44:35;;;;;;;5.10;4.63;;;;;;;1.98;100.00;96615.38;5034808;28;101909;-65
2022/04/18 00:47:02;;;;;;;5.07;4.57;;;;;;;1.95;100.00;96619.19;5028755;28;105507;-65
2022/04/18 00:49:29;;;;;;;5.20;4.70;;;;;;;1.97;100.00;96617.16;5029687;28;101908;-65
2022/04/18 00:51:57;;;;;;;4.97;4.47;;;;;;;1.63;100.00;96616.28;5029715;28;104774;-65
2022/04/18 00:54:25;;;;;;;4.60;4.10;;;;;;;1.52;100.00;96607.16;5029100;28;105494;-65
2022/04/18 00:56:53;;;;;;;4.67;4.27;;;;;;;1.42;100.00;96604.03;5000248;28;104353;-65
2022/04/18 00:59:21;;;;;;;4.80;4.40;;;;;;;1.23;100.00;96607.28;4989347;28;104650;-65
2022/04/18 01:01:48;;;;;;;6.83;4.70;;;;;;;1.35;100.00;96604.97;4988471;28;104925;-65
2022/04/18 01:04:16;;;;;;;4.23;3.83;;;;;;;1.43;100.00;96603.03;4989272;28;101733;-65
2022/04/18 01:06:43;;;;;;;4.47;4.07;;;;;;;1.35;100.00;96604.97;4992133;28;104906;-65
2022/04/18 01:09:11;;;;;;;4.93;4.47;;;;;;;1.12;100.00;96596.50;4989147;28;101958;-65
2022/04/18 01:11:38;;;;;;;5.70;5.07;;;;;;;1.30;100.00;96594.25;4989317;28;105253;-65
2022/04/18 01:14:30;;;;;;;5.43;4.90;;;;;;;1.39;100.00;96588.72;4989198;28;103614;-65
2022/04/18 01:17:19;;;;;;;5.07;4.57;;;;;;;1.14;100.00;96592.69;4989086;28;102329;-65
2022/04/18 01:20:12;;;;;;;5.10;4.70;;;;;;;1.30;100.00;96591.63;4988942;28;104516;-65
2022/04/18 01:22:53;;;;;;;5.07;4.50;;;;;;;1.33;100.00;96588.63;4988453;28;104229;-65
2022/04/18 01:31:09;;;;;;;4.57;4.17;;;;;;;1.03;100.00;96579.28;4991468;28;105017;-65
2022/04/18 01:33:38;;;;;;;4.90;4.50;;;;;;;0.94;100.00;96580.41;4988782;28;105196;-65
2022/04/18 01:36:05;;;;;;;5.03;4.60;;;;;;;0.84;100.00;96574.66;4988430;28;105447;-65
2022/04/18 01:38:35;;;;;;;5.77;5.10;;;;;;;0.99;100.00;96573.59;4988866;28;102079;-65
2022/04/18 01:41:02;;;;;;;5.83;4.90;;;;;;;1.03;100.00;96567.00;4990297;28;101951;-65
2022/04/18 01:43:29;;;;;;;6.37;4.90;;;;;;;1.01;100.00;96565.56;4988260;28;105362;-65
2022/04/18 01:45:58;;;;;;;5.50;5.00;;;;;;;1.11;100.00;96566.88;4987633;28;102137;-65
2022/04/18 01:48:27;;;;;;;5.97;5.27;;;;;;;1.19;100.00;96568.56;4988742;28;105167;-65
2022/04/18 01:50:54;;;;;;;5.80;5.07;;;;;;;1.11;100.00;96561.63;4988210;28;105424;-65
2022/04/18 01:53:22;;;;;;;5.93;4.97;;;;;;;0.91;100.00;96559.81;4992441;28;102710;-65
2022/04/18 01:55:51;;;;;;;5.53;4.90;;;;;;;0.81;100.00;96565.38;4999185;28;104892;-65
2022/04/18 01:58:20;;;;;;;5.40;4.70;;;;;;;0.81;100.00;96560.16;5028725;28;101827;-65
2022/04/18 02:00:48;;;;;;;5.37;4.87;;;;;;;0.80;100.00;96558.53;5028625;28;104881;-65
2022/04/18 02:03:16;;;;;;;5.70;5.20;;;;;;;0.80;100.00;96560.31;5028026;28;105703;-65
2022/04/18 02:05:44;;;;;;;5.03;4.63;;;;;;;0.69;100.00;96556.41;5028280;28;101885;-65
2022/04/18 02:08:12;;;;;;;5.60;5.10;;;;;;;0.74;100.00;96551.41;5028804;28;105033;-65
2022/04/18 02:10:40;;;;;;;6.63;5.37;;;;;;;0.59;100.00;96549.81;5029237;28;102524;-65
2022/04/18 02:13:12;;;;;;;5.77;5.10;;;;;;;0.76;100.00;96548.59;5012457;28;102067;-65
2022/04/18 02:15:39;;;;;;;5.67;4.83;;;;;;;0.73;100.00;96548.97;5031041;28;104944;-65
2022/04/18 02:18:08;;;;;;;5.20;4.70;;;;;;;0.67;100.00;96547.09;5028451;28;102025;-65
2022/04/18 02:20:36;;;;;;;5.53;4.53;;;;;;;0.46;100.00;96547.91;5028180;28;105277;-65
2022/04/18 02:23:03;;;;;;;5.30;4.80;;;;;;;0.33;100.00;96549.53;5029299;28;102576;-65
2022/04/18 02:25:31;;;;;;;5.80;5.10;;;;;;;0.24;100.00;96548.00;5028491;28;102131;-65
2022/04/18 02:28:04;;;;;;;5.47;4.87;;;;;;;0.21;100.00;96551.81;5028462;28;104640;-65
2022/04/18 02:30:33;;;;;;;5.30;4.57;;;;;;;0.23;100.00;96549.00;5027359;28;103755;-65
2022/04/18 02:33:03;;;;;;;5.10;4.47;;;;;;;0.32;100.00;96546.09;5028333;28;101879;-65
2022/04/18 02:35:30;;;;;;;5.77;5.20;;;;;;;0.35;100.00;96537.09;5028185;28;105488;-65
2022/04/18 02:37:59;;;;;;;5.00;4.60;;;;;;;0.34;100.00;96538.88;5030989;28;104018;-65
2022/04/18 02:40:39;;;;;;;7.03;4.77;;;;;;;0.15;100.00;96530.78;5061814;27;105290;-65
2022/04/18 02:43:07;;;;;;;5.47;4.87;;;;;;;0.46;100.00;96534.00;5027617;28;105539;-65
2022/04/18 02:45:36;;;;;;;5.70;5.10;;;;;;;0.47;100.00;96525.16;5027879;28;102130;-65
2022/04/18 02:48:22;;;;;;;5.97;5.00;;;;;;;0.39;100.00;96518.22;5026833;28;102071;-65
2022/04/18 02:50:54;;;;;;;5.03;4.53;;;;;;;0.39;100.00;96514.81;5027037;28;105475;-65
2022/04/18 02:53:26;;;;;;;6.00;4.53;;;;;;;0.43;100.00;96516.03;5028061;28;102003;-65
2022/04/18 02:55:58;;;;;;;5.77;5.17;;;;;;;0.47;100.00;96515.50;5027763;28;104968;-65
2022/04/18 02:58:25;;;;;;;7.03;5.70;;;;;;;0.50;100.00;96511.72;5015751;28;105206;-65
2022/04/18 03:00:55;;;;;;;6.37;5.40;;;;;;;0.57;100.00;96504.72;5030729;28;104620;-65
2022/04/18 03:03:22;;;;;;;6.50;5.70;;;;;;;0.47;100.00;96501.59;5032219;27;102990;-65
2022/04/18 03:05:49;;;;;;;5.40;5.00;;;;;;;0.51;100.00;96505.47;5031402;28;101876;-65
2022/04/18 03:08:18;;;;;;;5.20;4.77;;;;;;;0.51;100.00;96500.25;5031284;28;105349;-65
2022/04/18 03:13:32;;;;;;;5.57;4.97;;;;;;;0.30;100.00;96493.19;5031142;28;102144;-65
2022/04/18 03:16:02;;;;;;;5.20;4.80;;;;;;;0.20;100.00;96492.66;5030780;28;104849;-65
2022/04/18 03:18:29;;;;;;;6.07;5.27;;;;;;;0.01;100.00;96492.44;5030481;28;105098;-65
2022/04/18 03:20:57;;;;;;;6.10;5.50;;;;;;;0.17;100.00;96493.00;5034588;28;101892;-65
2022/04/18 03:23:24;;;;;;;5.23;4.73;;;;;;;0.30;100.00;96487.13;5030628;28;105680;-65
2022/04/18 03:26:13;;;;;;;5.73;5.23;;;;;;;0.34;100.00;96493.63;5030890;28;102058;-65
2022/04/18 03:28:51;;;;;;;5.93;5.20;;;;;;;0.23;100.00;96488.88;5031112;28;104793;-65
2022/04/18 03:31:21;;;;;;;8.83;5.80;;;;;;;0.23;100.00;96481.81;5030404;28;104930;-65
2022/04/18 03:33:48;;;;;;;6.00;5.40;;;;;;;0.23;100.00;96475.78;5030843;28;101894;-65
2022/04/18 03:41:46;;;;;;;6.97;5.00;;;;;;;0.06;100.00;96479.63;5030963;28;101969;-65
2022/04/18 03:44:15;;;;;;;5.70;5.20;;;;;;;0.10;100.00;96481.69;5033543;28;104805;-65
2022/04/18 03:46:44;;;;;;;6.20;5.60;;;;;;;0.01;100.00;96476.75;5030638;28;101787;-65
2022/04/18 03:49:11;;;;;;;5.60;5.10;;;;;;;-0.04;100.00;96473.88;5030606;28;105349;-65
2022/04/18 03:51:41;;;;;;;7.20;5.77;;;;;;;-0.08;100.00;96468.19;5029883;28;105692;-65
2022/04/18 03:54:11;;;;;;;6.40;5.80;;;;;;;0.04;100.00;96471.97;5030638;28;101797;-65
2022/04/18 03:56:38;;;;;;;6.80;6.10;;;;;;;-0.03;100.00;96470.25;5030128;28;105016;-65
2022/04/18 03:59:26;;;;;;;6.87;6.17;;;;;;;0.08;100.00;96473.22;5029871;28;105127;-65
2022/04/18 04:02:08;;;;;;;6.87;6.13;;;;;;;0.16;100.00;96472.28;5030522;28;101895;-65
2022/04/18 04:04:41;;;;;;;6.60;6.00;;;;;;;0.20;100.00;96478.75;5030506;28;104946;-65
2022/04/18 04:07:08;;;;;;;6.50;5.80;;;;;;;0.04;100.00;96471.97;5033234;28;105146;-65
2022/04/18 04:09:36;;;;;;;6.47;5.90;;;;;;;0.20;100.00;96470.91;5029771;27;105354;-65
2022/04/18 04:12:06;;;;;;;6.50;5.57;;;;;;;0.15;100.00;96473.28;5029656;28;104931;-65
2022/04/18 04:14:42;;;;;;;5.43;5.00;;;;;;;0.17;100.00;96473.91;5030065;28;101968;-65
2022/04/18 04:17:11;;;;;;;9.50;6.40;;;;;;;0.24;100.00;96470.34;5030147;28;104539;-65
2022/04/18 04:19:40;;;;;;;8.37;6.70;;;;;;;0.26;100.00;96471.00;5029742;28;105135;-65
2022/04/18 04:22:18;;;;;;;7.40;6.60;;;;;;;0.30;100.00;96466.22;5030206;28;101859;-65
2022/04/18 04:24:49;;;;;;;12.10;10.90;;;;;;;0.43;100.00;96454.06;5029926;28;103972;-65
2022/04/18 04:27:16;;;;;;;10.43;8.10;;;;;;;0.45;100.00;96459.94;5028459;28;105026;-65
2022/04/18 04:29:44;;;;;;;8.17;7.27;;;;;;;0.43;100.00;96468.94;5032407;27;102153;-65
2022/04/18 04:32:24;;;;;;;7.53;6.00;;;;;;;-0.10;100.00;96461.53;5029355;28;105136;-65
2022/04/18 04:34:51;;;;;;;6.77;5.30;;;;;;;-0.28;100.00;96456.69;5029817;28;101888;-65
2022/04/18 04:37:41;;;;;;;7.13;5.57;;;;;;;-0.22;100.00;96460.34;5027568;27;102707;-65
2022/04/18 04:40:32;;;;;;;5.83;5.23;;;;;;;-0.48;100.00;96467.06;5030125;28;103355;-65
2022/04/18 04:42:59;;;;;;;6.47;5.30;;;;;;;-0.29;100.00;96466.50;5029924;28;102101;-65
2022/04/18 04:45:28;;;;;;;6.20;5.57;;;;;;;-0.20;100.00;96464.41;5029693;28;103500;-65
2022/04/18 04:48:20;;;;;;;6.10;5.53;;;;;;;0.00;100.00;96464.69;5028963;28;105141;-65
2022/04/18 04:50:53;;;;;;;6.13;5.53;;;;;;;0.10;100.00;96465.16;5029739;28;101800;-65
2022/04/18 04:53:20;;;;;;;6.73;5.33;;;;;;;0.04;100.00;96458.06;5032609;28;105179;-65
2022/04/18 04:55:47;;;;;;;5.53;5.03;;;;;;;0.07;100.00;96463.72;5029342;28;102047;-65
2022/04/18 04:58:15;;;;;;;5.70;5.20;;;;;;;-0.06;100.00;96460.16;5029721;28;104783;-65
2022/04/18 05:01:07;;;;;;;6.20;5.40;;;;;;;0.29;100.00;96454.13;5022889;28;103476;-65
2022/04/18 05:03:44;;;;;;;5.80;5.30;;;;;;;0.48;100.00;96458.75;5029492;28;101754;-65
2022/04/18 05:06:12;;;;;;;6.10;5.50;;;;;;;0.57;100.00;96457.63;5029246;28;105978;-65
2022/04/18 05:08:45;;;;;;;6.43;5.83;;;;;;;0.73;100.00;96455.56;5028749;28;105133;-65
2022/04/18 05:11:13;;;;;;;7.27;5.93;;;;;;;0.90;100.00;96453.50;5029045;28;101930;-65
2022/04/18 05:13:52;;;;;;;6.83;6.13;;;;;;;1.00;100.00;96461.84;5032175;28;105174;-65
2022/04/18 05:16:26;;;;;;;7.27;6.50;;;;;;;0.98;100.00;96462.03;5029221;28;102447;-65
2022/04/18 05:18:59;;;;;;;6.93;6.23;;;;;;;1.12;100.00;96460.31;5029259;28;104945;-65
2022/04/18 05:21:28;;;;;;;6.73;6.03;;;;;;;1.06;100.00;96464.53;5027742;27;105156;-65
2022/04/18 05:24:01;;;;;;;6.60;6.00;;;;;;;1.15;100.00;96468.59;5028978;28;102006;-65
2022/04/18 05:26:29;;;;;;;6.20;5.70;;;;;;;1.17;100.00;96471.03;5029088;28;104804;-65
2022/04/18 05:28:56;;;;;;;6.50;5.90;;;;;;;1.26;100.00;96469.91;5028282;28;105425;-65
2022/04/18 05:31:24;;;;;;;6.40;5.80;;;;;;;1.33;100.00;96471.59;5012483;28;101907;-65
2022/04/18 05:33:52;;;;;;;7.40;6.30;;;;;;;1.53;100.00;96471.72;5028899;28;105597;-64
2022/04/18 05:36:23;;;;;;;7.30;6.70;;;;;;;1.90;100.00;96476.53;5033101;27;103696;-64
2022/04/18 05:38:50;;;;;;;8.37;6.57;;;;;;;2.08;100.00;96472.38;5028955;28;104134;-64
2022/04/18 05:41:28;;;;;;;9.17;7.00;;;;;;;2.18;100.00;96477.28;5027971;28;105069;-64
2022/04/18 05:43:56;;;;;;;8.77;7.17;;;;;;;2.16;100.00;96474.03;5012411;28;101985;-64
2022/04/18 05:46:28;;;;;;;7.53;6.80;;;;;;;2.13;100.00;96475.22;5028695;28;105119;-64
2022/04/18 05:48:57;;;;;;;8.03;7.10;;;;;;;2.33;100.00;96473.50;5028255;28;105453;-64
2022/04/18 05:51:32;;;;;;;7.47;6.77;;;;;;;2.50;100.00;96482.63;5062634;27;102229;-64
2022/04/18 05:54:03;;;;;;;8.03;7.23;;;;;;;2.47;100.00;96479.59;5028474;28;104606;-64
2022/04/18 05:56:35;;;;;;;8.00;7.20;;;;;;;2.56;100.00;96475.78;5027699;28;105317;-64
2022/04/18 05:59:16;;;;;;;9.83;7.67;;;;;;;2.72;100.00;96472.75;5032240;28;102021;-64
2022/04/18 06:01:57;;;;;;;10.63;8.47;;;;;;;2.52;100.00;96485.06;5027671;28;104123;-64
2022/04/18 06:04:34;;;;;;;12.63;9.33;;;;;;;2.64;100.00;96476.41;5028718;28;101868;-64
2022/04/18 06:07:22;;;;;;;10.03;8.37;;;;;;;2.88;100.00;96483.69;5018032;27;102596;-64
2022/04/18 06:10:00;;;;;;;9.47;8.53;;;;;;;3.08;100.00;96486.34;5027784;28;103880;-64
2022/04/18 06:12:30;;;;;;;9.63;8.27;;;;;;;3.18;100.00;96477.03;5028116;28;102101;-64
2022/04/18 06:14:58;;;;;;;8.63;7.73;;;;;;;3.42;100.00;96478.25;5028303;28;103781;-64
2022/04/18 06:17:26;;;;;;;7.87;7.17;;;;;;;3.44;100.00;96476.25;5026191;28;104395;-64
2022/04/18 06:19:58;;;;;;;8.13;7.27;;;;;;;3.63;100.00;96481.47;5028453;28;102079;-64
2022/04/18 06:22:27;;;;;;;6.90;6.30;;;;;;;3.56;100.00;96479.88;5031041;28;105258;-64
2022/04/18 06:24:56;;;;;;;7.07;6.37;;;;;;;3.72;100.00;96490.75;5028152;28;101869;-64
2022/04/18 06:27:29;;;;;;;7.40;6.70;;;;;;;3.72;100.00;96489.94;5028382;28;104986;-64
2022/04/18 06:29:57;;;;;;;7.10;6.50;;;;;;;3.86;100.00;96486.25;5027530;28;105100;-64
2022/04/18 06:32:25;;;;;;;6.40;5.90;;;;;;;3.85;100.00;96482.84;5029771;27;101821;-65
2022/04/18 06:34:53;;;;;;;6.20;5.70;;;;;;;3.63;100.00;96485.91;5031831;28;105234;-65
2022/04/18 06:37:28;;;;;;;6.37;5.67;;;;;;;3.97;100.00;96481.19;5031098;28;105230;-65
2022/04/18 06:39:59;;;;;;;7.37;5.60;;;;;;;4.21;100.00;96480.47;5029860;27;101868;-65
2022/04/18 06:42:41;;;;;;;9.37;5.43;;;;;;;4.47;100.00;96474.31;5031765;28;104913;-65
2022/04/18 06:45:22;;;;;;;5.60;5.10;;;;;;;4.58;100.00;96469.19;5034366;28;105233;-65
2022/04/18 06:47:49;;;;;;;5.53;5.03;;;;;;;4.72;100.00;96473.38;5031744;28;105377;-65
2022/04/18 06:50:23;;;;;;;6.03;5.43;;;;;;;5.03;100.00;96472.56;5030993;28;105480;-65
2022/04/18 06:52:55;;;;;;;5.63;4.97;;;;;;;5.23;100.00;96470.59;5029503;27;102307;-65
2022/04/18 06:58:40;;;;;;;5.80;5.30;;;;;;;5.73;100.00;96464.25;5031000;28;105389;-64
2022/04/18 07:01:09;;;;;;;5.40;4.90;;;;;;;5.90;100.00;96460.81;5031235;28;102186;-65
2022/04/18 07:03:36;;;;;;;5.50;5.00;;;;;;;6.04;100.00;96461.50;5031130;28;105307;-64
2022/04/18 07:06:03;;;;;;;5.63;5.13;;;;;;;6.23;100.00;96466.53;5030708;28;105216;-64
2022/04/18 07:08:33;;;;;;;5.03;4.63;;;;;;;6.31;100.00;96465.44;5034743;28;101718;-64
2022/04/18 07:11:18;;;;;;;5.47;4.63;;;;;;;6.41;100.00;96463.09;5030708;28;103870;-65
2022/04/18 07:13:47;;;;;;;4.53;4.13;;;;;;;6.22;100.00;96461.50;5031087;28;101789;-65
2022/04/18 07:16:13;;;;;;;4.70;4.30;;;;;;;6.08;100.00;96460.84;5030935;28;104070;-64
2022/04/18 07:18:40;;;;;;;5.20;4.80;;;;;;;6.20;100.00;96458.25;5030545;28;105006;-64
2022/04/18 07:21:13;;;;;;;4.93;4.53;;;;;;;6.06;100.00;96462.09;5030942;28;101892;-64
2022/04/18 07:23:43;;;;;;;5.40;4.07;;;;;;;6.13;100.00;96460.19;5031051;28;104941;-65
2022/04/18 07:26:11;;;;;;;4.77;4.40;;;;;;;6.20;100.00;96456.44;5030358;28;105213;-64
2022/04/18 07:28:39;;;;;;;4.67;4.17;;;;;;;6.37;100.00;96459.25;5034422;28;102002;-64
2022/04/18 07:31:08;;;;;;;6.17;3.93;;;;;;;6.64;100.00;96455.25;5029944;28;105371;-64
2022/04/18 07:33:37;;;;;;;4.37;4.00;;;;;;;6.87;100.00;96456.16;5064899;27;101853;-64
2022/04/18 07:36:08;;;;;;;4.47;4.07;;;;;;;7.09;100.00;96449.31;5030662;28;105535;-64
2022/04/18 07:38:50;;;;;;;4.47;4.07;;;;;;;7.36;100.00;96452.34;5030265;28;105695;-64
2022/04/18 07:41:24;;;;;;;4.27;3.90;;;;;;;7.48;100.00;96450.53;5030792;28;101856;-64
2022/04/18 07:43:55;;;;;;;5.00;4.50;;;;;;;7.75;100.00;96454.31;5029851;27;105234;-64
2022/04/18 07:46:23;;;;;;;4.70;4.20;;;;;;;7.62;100.00;96442.13;5029685;28;105335;-64
2022/04/18 07:48:51;;;;;;;4.60;4.20;;;;;;;8.09;100.00;96440.25;5030535;28;101954;-64
2022/04/18 07:51:39;;;;;;;4.73;4.30;;;;;;;8.31;100.00;96446.56;5033294;28;105622;-65
2022/04/18 07:54:29;;;;;;;4.90;4.43;;;;;;;8.55;100.00;96434.81;5028025;27;101907;-64
2022/04/18 07:56:58;;;;;;;4.70;4.30;;;;;;;8.78;100.00;96440.06;5029812;28;105140;-64
2022/04/18 07:59:48;;;;;;;4.50;4.10;;;;;;;9.05;100.00;96441.06;5029735;28;105441;-64
2022/04/18 08:02:18;;;;;;;4.30;3.90;;;;;;;8.41;100.00;96444.91;5030066;28;101955;-64
2022/04/18 08:05:07;;;;;;;4.43;4.07;;;;;;;8.61;100.00;96440.00;5030329;28;104843;-64
2022/04/18 08:07:47;;;;;;;4.90;4.27;;;;;;;8.58;100.00;96439.66;5029729;28;105030;-64
2022/04/18 08:10:16;;;;;;;4.77;4.07;;;;;;;8.97;100.00;96436.16;5030257;28;101952;-64
2022/04/18 08:12:44;;;;;;;3.50;3.20;;;;;;;9.17;100.00;96444.47;5030190;28;105068;-64
2022/04/18 08:15:47;;;;;;;3.53;3.23;;;;;;;9.56;100.00;96435.53;5011617;28;102509;-64
2022/04/18 08:18:31;;;;;;;3.10;2.83;;;;;;;9.80;100.00;96437.75;5026387;28;104547;-64
2022/04/18 08:20:58;;;;;;;3.07;2.77;;;;;;;10.22;100.00;96438.09;5029393;28;105114;-64
2022/04/18 08:23:26;;;;;;;3.13;2.90;;;;;;;10.39;100.00;96437.00;5029944;28;101892;-64
2022/04/18 08:26:11;;;;;;;3.23;2.93;;;;;;;10.36;100.00;96437.47;5028485;28;102111;-64
2022/04/18 08:28:54;;;;;;;3.73;2.70;;;;;;;10.67;99.92;96430.66;5029226;28;105950;-64
2022/04/18 08:31:23;;;;;;;3.33;3.03;;;;;;;10.75;97.50;96436.31;5030105;28;102172;-64
2022/04/18 08:34:04;;;;;;;2.87;2.63;;;;;;;11.15;96.30;96439.41;5029933;28;105564;-64
2022/04/18 08:36:33;;;;;;;2.50;2.30;;;;;;;11.49;80.49;96439.94;5029054;28;105067;-64
2022/04/18 08:39:03;;;;;;;2.70;2.50;;;;;;;11.75;76.21;96436.44;5033175;28;101813;-64
2022/04/18 08:42:06;;;;;;;2.60;2.40;;;;;;;11.79;78.20;96429.56;5026197;27;103769;-64
2022/04/18 08:44:42;;;;;;;2.47;2.27;;;;;;;12.05;80.31;96434.00;5029476;28;101947;-64
2022/04/18 08:52:43;;;;;;;2.30;2.10;;;;;;;12.12;71.03;96429.22;5029687;28;105260;-64
2022/04/18 08:52:45;;;;;;;2.33;2.17;;;;;;;12.41;68.06;96428.56;5029608;28;101911;-64
2022/04/18 08:55:27;;;;;;;2.20;2.10;;;;;;;12.34;63.51;96427.19;5028990;28;105285;-64
2022/04/18 08:57:55;;;;;;;1.80;1.70;;;;;;;12.61;60.61;96417.16;5029029;28;105411;-64
2022/04/18 09:00:25;;;;;;;2.37;2.07;;;;;;;12.73;58.55;96420.41;5029142;28;102118;-64
2022/04/18 09:03:05;;;;;;;2.00;1.80;;;;;;;13.09;57.07;96420.25;5032018;28;103783;-64
2022/04/18 09:05:42;;;;;;;2.10;1.90;;;;;;;13.31;56.88;96414.66;5029344;28;102242;-64
2022/04/18 09:08:10;;;;;;;2.27;2.07;;;;;;;13.25;54.56;96415.75;5029587;28;104699;-64
2022/04/18 09:10:40;;;;;;;1.90;1.70;;;;;;;13.42;54.38;96421.63;5028893;28;105071;-64
2022/04/18 09:13:09;;;;;;;2.23;2.10;;;;;;;13.53;52.19;96413.31;5029468;28;101920;-64
2022/04/18 09:16:00;;;;;;;1.90;1.80;;;;;;;13.73;54.31;96409.84;5029049;28;105252;-64
2022/04/18 09:18:29;;;;;;;2.37;2.00;;;;;;;13.80;56.57;96408.47;5028377;28;105100;-64
2022/04/18 09:21:00;;;;;;;2.00;1.90;;;;;;;13.90;52.34;96415.72;5029403;28;101829;-64
2022/04/18 09:23:33;;;;;;;2.10;1.90;;;;;;;13.90;51.31;96413.03;5029444;28;104824;-64
2022/04/18 09:26:22;;;;;;;2.07;1.97;;;;;;;14.34;50.28;96412.13;5032063;28;102044;-64
2022/04/18 09:28:49;;;;;;;1.87;1.77;;;;;;;14.26;48.34;96410.03;5029114;28;104175;-64
2022/04/18 09:31:26;;;;;;;2.33;1.80;;;;;;;14.30;45.56;96407.59;5028071;28;105145;-67
2022/04/18 09:33:58;;;;;;;3.27;1.60;;;;;;;14.41;44.83;96406.50;5029041;28;101987;-64
2022/04/18 09:36:27;;;;;;;1.73;1.60;;;;;;;14.53;44.04;96398.94;5029092;28;104597;-64
2022/04/18 09:38:56;;;;;;;1.60;1.50;;;;;;;14.43;44.00;96402.47;5028116;28;105162;-64
2022/04/18 09:41:35;;;;;;;1.90;1.50;;;;;;;14.47;42.38;96398.19;5028930;28;101869;-64
2022/04/18 09:44:31;;;;;;;2.00;1.60;;;;;;;14.53;42.74;96397.09;5028556;28;104247;-64
2022/04/18 09:47:00;;;;;;;1.80;1.70;;;;;;;14.38;43.03;96396.34;5031408;28;105832;-64
2022/04/18 09:49:39;;;;;;;2.07;1.60;;;;;;;13.89;41.00;96393.50;5028766;28;105498;-64
2022/04/18 09:52:09;;;;;;;1.83;1.73;;;;;;;14.05;43.11;96391.59;5028250;28;106324;-64
2022/04/18 09:54:36;;;;;;;3.70;3.40;;;;;;;13.76;42.89;96391.41;5028603;28;101875;-64
2022/04/18 09:57:06;;;;;;;3.97;3.00;;;;;;;13.61;41.82;96383.41;5029513;28;102900;-64
2022/04/18 09:59:33;;;;;;;2.27;1.50;;;;;;;14.08;42.73;96385.72;5027847;28;105428;-64
2022/04/18 10:02:02;;;;;;;1.73;1.60;;;;;;;14.55;42.12;96383.44;5028335;28;101832;-64
2022/04/18 10:04:30;;;;;;;1.83;1.60;;;;;;;14.73;38.84;96378.25;5030128;28;102423;-64
2022/04/18 10:06:57;;;;;;;2.67;1.73;;;;;;;14.62;38.99;96378.56;5027293;28;105354;-64
2022/04/18 10:09:25;;;;;;;1.60;1.50;;;;;;;14.95;38.30;96375.97;5033339;27;102195;-64
2022/04/18 10:11:52;;;;;;;1.80;1.70;;;;;;;14.89;39.05;96377.06;5029223;28;102664;-64
2022/04/18 10:14:19;;;;;;;1.70;1.60;;;;;;;15.34;38.48;96374.13;5029685;28;101737;-64
2022/04/18 10:16:47;;;;;;;2.70;1.70;;;;;;;15.49;36.63;96370.50;5028253;28;104083;-64
2022/04/18 10:19:28;;;;;;;1.97;1.60;;;;;;;15.40;36.15;96369.50;5028868;27;102785;-64
2022/04/18 10:22:09;;;;;;;2.77;1.80;;;;;;;15.47;37.84;96368.09;5028250;28;101853;-64
2022/04/18 10:24:56;;;;;;;1.93;1.40;;;;;;;15.77;36.77;96361.66;5029736;28;102387;-64
2022/04/18 10:28:04;;;;;;;1.63;1.53;;;;;;;15.83;34.94;96345.25;5029096;27;102557;-64
2022/04/18 10:30:36;;;;;;;1.97;1.70;;;;;;;15.42;35.66;96345.91;5029780;28;101688;-64
2022/04/18 10:33:04;;;;;;;1.63;1.40;;;;;;;15.76;37.14;96344.75;5032583;27;102692;-64
2022/04/18 10:35:34;;;;;;;1.50;1.40;;;;;;;15.95;35.48;96342.97;5029486;28;102424;-64
2022/04/18 10:38:04;;;;;;;2.20;1.50;;;;;;;16.49;34.35;96343.44;5029688;27;102271;-64
2022/04/18 10:40:41;;;;;;;1.40;1.30;;;;;;;16.41;33.98;96351.31;5029137;27;102615;-64
2022/04/18 10:43:10;;;;;;;1.50;1.40;;;;;;;16.70;33.50;96342.06;5029200;27;102099;-64
2022/04/18 10:45:37;;;;;;;1.70;1.40;;;;;;;16.20;33.22;96344.56;5029116;28;102357;-64
2022/04/18 10:48:09;;;;;;;1.77;1.50;;;;;;;16.37;33.92;96344.88;5028600;27;104585;-64
2022/04/18 10:50:43;;;;;;;1.33;1.27;;;;;;;16.37;32.79;96351.06;5029258;27;101766;-64
2022/04/18 10:53:20;;;;;;;1.63;1.43;;;;;;;16.57;31.51;96336.63;5027973;28;104033;-64
2022/04/18 10:56:10;;;;;;;2.37;1.40;;;;;;;16.39;31.76;96332.00;5030112;28;104282;-64
2022/04/18 10:58:38;;;;;;;1.50;1.30;;;;;;;16.55;34.34;96336.09;5027556;28;105349;-64
2022/04/18 11:01:08;;;;;;;2.00;1.33;;;;;;;16.77;32.73;96323.69;5028501;28;103156;-64
2022/04/18 11:03:44;;;;;;;1.50;1.17;;;;;;;17.09;33.43;96325.63;5029109;27;101706;-64
2022/04/18 11:06:49;;;;;;;1.50;1.40;;;;;;;17.18;33.15;96326.56;5029532;27;102239;-64
2022/04/18 11:09:20;;;;;;;1.90;1.33;;;;;;;17.17;31.33;96322.31;5027098;28;107185;-64
2022/04/18 11:11:50;;;;;;;1.27;1.10;;;;;;;17.10;31.93;96317.28;5029395;27;101645;-64
2022/04/18 11:14:19;;;;;;;1.40;1.30;;;;;;;16.60;33.29;96326.09;5028950;27;102402;-64
2022/04/18 11:16:56;;;;;;;1.40;1.30;;;;;;;16.71;32.66;96314.13;5028595;28;102660;-64
2022/04/18 11:19:25;;;;;;;1.60;1.40;;;;;;;17.04;32.28;96317.66;5032304;28;102535;-64
2022/04/18 11:22:20;;;;;;;1.20;1.10;;;;;;;17.05;31.79;96313.91;5031808;28;103156;-64
2022/04/18 11:25:02;;;;;;;1.30;1.20;;;;;;;16.72;31.71;96309.53;5032537;28;102019;-64
2022/04/18 11:27:38;;;;;;;1.57;1.47;;;;;;;17.17;30.63;96317.69;5030714;28;105672;-64
2022/04/18 11:30:08;;;;;;;1.43;1.20;;;;;;;17.06;31.57;96304.75;5032008;27;102623;-64
2022/04/18 11:32:37;;;;;;;1.17;1.07;;;;;;;17.16;31.03;96305.38;5032446;28;101646;-64
2022/04/18 11:35:07;;;;;;;1.17;1.13;;;;;;;17.29;29.65;96301.94;5032035;28;102376;-64
2022/04/18 11:37:39;;;;;;;1.47;1.10;;;;;;;16.94;30.12;96299.03;5031484;28;102559;-64
2022/04/18 11:40:08;;;;;;;1.07;1.07;;;;;;;17.74;30.00;96300.34;5017373;28;102474;-64
2022/04/18 11:42:37;;;;;;;1.23;1.13;;;;;;;17.65;31.08;96302.16;5031607;28;103182;-64
2022/04/18 11:45:06;;;;;;;1.10;1.00;;;;;;;17.78;29.37;96299.47;5031672;28;101879;-64
2022/04/18 11:47:37;;;;;;;1.93;1.20;;;;;;;17.95;29.04;96288.94;5032318;28;102677;-64
2022/04/18 11:50:07;;;;;;;1.40;1.20;;;;;;;17.71;29.33;96295.59;5029815;28;105636;-64
2022/04/18 11:52:37;;;;;;;1.07;1.03;;;;;;;17.82;29.13;96297.00;5032137;27;101814;-64
2022/04/18 11:55:06;;;;;;;0.87;0.87;;;;;;;17.75;28.20;96288.50;5030316;28;105374;-64
2022/04/18 11:57:34;;;;;;;1.20;1.10;;;;;;;17.35;28.46;96286.50;5031082;27;102799;-64
2022/04/18 12:00:03;;;;;;;1.40;1.00;;;;;;;17.48;29.19;96285.75;5031543;27;101804;-64
2022/04/18 12:08:27;;;;;;;0.97;0.97;;;;;;;17.83;26.46;96271.69;4972577;28;105654;-64
2022/04/18 12:10:57;;;;;;;0.83;0.83;;;;;;;17.90;26.80;96262.13;5002836;28;105581;-64
2022/04/18 12:13:24;;;;;;;1.20;1.10;;;;;;;18.15;27.92;96264.28;5031627;28;101698;-64